Terminal Aerodrome Forecast
Issued by NWS Sioux Falls, SD

Home | Current Version | Previous Version | Text Only | Print | Product List | Glossary On
Versions: 1 2 3 4 5 6 7 8 9 10 11 12 13 14 15 16 17
000
FTUS43 KFSD 012320
TAFFSD
TAF
KFSD 012320Z 0200/0224 27005KT P6SM SCT040
     FM020400 25005KT P6SM -SHRA BKN040
     FM020600 24005KT P6SM SCT040
      TEMPO 0211/0213 4SM BR
     FM021400 24007KT P6SM SKC=

USA.gov is the U.S. government's official web portal to all federal, state and local government web resources and services.